sensor_id;sensor_type;location;lat;lon;timestamp;temperature;humidity
63017;DHT22;50274;45.640;11.756;2023-06-01T00:01:59;21.50;55.90
63017;DHT22;50274;45.640;11.756;2023-06-01T00:04:25;21.40;55.90
63017;DHT22;50274;45.640;11.756;2023-06-01T00:06:51;21.40;56.00
63017;DHT22;50274;45.640;11.756;2023-06-01T00:09:16;21.40;56.10
63017;DHT22;50274;45.640;11.756;2023-06-01T00:11:43;21.30;56.10
63017;DHT22;50274;45.640;11.756;2023-06-01T00:14:09;21.30;56.30
63017;DHT22;50274;45.640;11.756;2023-06-01T00:16:35;21.20;56.40
63017;DHT22;50274;45.640;11.756;2023-06-01T00:19:02;21.20;56.50
63017;DHT22;50274;45.640;11.756;2023-06-01T00:21:29;21.10;56.50
63017;DHT22;50274;45.640;11.756;2023-06-01T00:23:57;21.10;56.50
63017;DHT22;50274;45.640;11.756;2023-06-01T00:26:23;21.10;56.60
63017;DHT22;50274;45.640;11.756;2023-06-01T00:28:49;21.10;56.60
63017;DHT22;50274;45.640;11.756;2023-06-01T00:31:15;21.00;56.60
63017;DHT22;50274;45.640;11.756;2023-06-01T00:33:41;21.10;56.60
63017;DHT22;50274;45.640;11.756;2023-06-01T00:36:07;21.10;56.60
63017;DHT22;50274;45.640;11.756;2023-06-01T00:38:32;21.00;56.60
63017;DHT22;50274;45.640;11.756;2023-06-01T00:40:58;20.90;56.60
63017;DHT22;50274;45.640;11.756;2023-06-01T00:43:24;20.90;56.80
63017;DHT22;50274;45.640;11.756;2023-06-01T00:45:50;21.00;56.90
63017;DHT22;50274;45.640;11.756;2023-06-01T00:48:16;20.90;56.90
63017;DHT22;50274;45.640;11.756;2023-06-01T00:50:43;20.90;56.90
63017;DHT22;50274;45.640;11.756;2023-06-01T00:53:17;20.80;57.00
63017;DHT22;50274;45.640;11.756;2023-06-01T00:55:44;20.80;57.10
63017;DHT22;50274;45.640;11.756;2023-06-01T00:58:15;20.80;57.10
63017;DHT22;50274;45.640;11.756;2023-06-01T01:00:41;20.80;57.20
63017;DHT22;50274;45.640;11.756;2023-06-01T01:03:07;20.80;57.40
63017;DHT22;50274;45.640;11.756;2023-06-01T01:05:35;20.80;57.50
63017;DHT22;50274;45.640;11.756;2023-06-01T01:11:10;20.60;57.80
63017;DHT22;50274;45.640;11.756;2023-06-01T01:16:29;20.60;58.00
63017;DHT22;50274;45.640;11.756;2023-06-01T01:19:24;20.60;58.40
63017;DHT22;50274;45.640;11.756;2023-06-01T01:22:22;20.50;58.20
63017;DHT22;50274;45.640;11.756;2023-06-01T01:30:28;20.50;58.50
63017;DHT22;50274;45.640;11.756;2023-06-01T01:32:57;20.40;58.60
63017;DHT22;50274;45.640;11.756;2023-06-01T01:35:24;20.40;58.70
63017;DHT22;50274;45.640;11.756;2023-06-01T01:37:55;20.40;58.70
63017;DHT22;50274;45.640;11.756;2023-06-01T01:40:21;20.40;58.80
63017;DHT22;50274;45.640;11.756;2023-06-01T01:42:49;20.30;58.90
63017;DHT22;50274;45.640;11.756;2023-06-01T01:45:17;20.30;59.00
63017;DHT22;50274;45.640;11.756;2023-06-01T01:47:58;20.30;59.10
63017;DHT22;50274;45.640;11.756;2023-06-01T01:50:27;20.30;59.30
63017;DHT22;50274;45.640;11.756;2023-06-01T01:52:56;20.30;59.20
63017;DHT22;50274;45.640;11.756;2023-06-01T01:55:23;20.20;59.30
63017;DHT22;50274;45.640;11.756;2023-06-01T01:57:54;20.20;59.40
63017;DHT22;50274;45.640;11.756;2023-06-01T02:00:21;20.20;59.50
63017;DHT22;50274;45.640;11.756;2023-06-01T02:02:47;20.10;59.60
63017;DHT22;50274;45.640;11.756;2023-06-01T02:05:13;20.10;59.70
63017;DHT22;50274;45.640;11.756;2023-06-01T02:07:39;20.10;59.80
63017;DHT22;50274;45.640;11.756;2023-06-01T02:10:07;20.10;59.90
63017;DHT22;50274;45.640;11.756;2023-06-01T02:12:33;20.00;60.00
63017;DHT22;50274;45.640;11.756;2023-06-01T02:14:59;20.00;60.10
63017;DHT22;50274;45.640;11.756;2023-06-01T02:17:25;20.00;60.20
63017;DHT22;50274;45.640;11.756;2023-06-01T02:19:52;19.90;60.30
63017;DHT22;50274;45.640;11.756;2023-06-01T02:22:18;19.90;60.40
63017;DHT22;50274;45.640;11.756;2023-06-01T02:24:44;19.90;60.50
63017;DHT22;50274;45.640;11.756;2023-06-01T02:27:10;19.80;60.70
63017;DHT22;50274;45.640;11.756;2023-06-01T02:29:36;19.70;60.90
63017;DHT22;50274;45.640;11.756;2023-06-01T02:32:02;19.70;61.00
63017;DHT22;50274;45.640;11.756;2023-06-01T02:34:28;19.70;61.10
63017;DHT22;50274;45.640;11.756;2023-06-01T02:36:54;19.70;61.20
63017;DHT22;50274;45.640;11.756;2023-06-01T02:39:23;19.60;61.30
63017;DHT22;50274;45.640;11.756;2023-06-01T02:41:49;19.60;61.40
63017;DHT22;50274;45.640;11.756;2023-06-01T02:44:15;19.60;61.50
63017;DHT22;50274;45.640;11.756;2023-06-01T02:46:41;19.60;61.70
63017;DHT22;50274;45.640;11.756;2023-06-01T02:49:07;19.60;61.70
63017;DHT22;50274;45.640;11.756;2023-06-01T02:51:33;19.60;61.60
63017;DHT22;50274;45.640;11.756;2023-06-01T02:53:59;19.50;61.70
63017;DHT22;50274;45.640;11.756;2023-06-01T02:56:25;19.60;61.80
63017;DHT22;50274;45.640;11.756;2023-06-01T02:58:52;19.50;61.80
63017;DHT22;50274;45.640;11.756;2023-06-01T03:01:18;19.50;61.90
63017;DHT22;50274;45.640;11.756;2023-06-01T03:03:45;19.40;61.90
63017;DHT22;50274;45.640;11.756;2023-06-01T03:06:11;19.50;61.90
63017;DHT22;50274;45.640;11.756;2023-06-01T03:08:39;19.40;61.90
63017;DHT22;50274;45.640;11.756;2023-06-01T03:11:05;19.40;62.00
63017;DHT22;50274;45.640;11.756;2023-06-01T03:13:31;19.30;62.10
63017;DHT22;50274;45.640;11.756;2023-06-01T03:15:57;19.30;62.10
63017;DHT22;50274;45.640;11.756;2023-06-01T03:18:22;19.30;62.20
63017;DHT22;50274;45.640;11.756;2023-06-01T03:20:48;19.30;62.20
63017;DHT22;50274;45.640;11.756;2023-06-01T03:23:14;19.30;62.20
63017;DHT22;50274;45.640;11.756;2023-06-01T03:25:40;19.30;62.20
63017;DHT22;50274;45.640;11.756;2023-06-01T03:28:07;19.30;62.20
63017;DHT22;50274;45.640;11.756;2023-06-01T03:30:33;19.30;62.20
63017;DHT22;50274;45.640;11.756;2023-06-01T03:32:59;19.30;62.20
63017;DHT22;50274;45.640;11.756;2023-06-01T03:35:25;19.30;62.30
63017;DHT22;50274;45.640;11.756;2023-06-01T03:37:51;19.30;62.40
63017;DHT22;50274;45.640;11.756;2023-06-01T03:40:17;19.20;62.40
63017;DHT22;50274;45.640;11.756;2023-06-01T03:42:45;19.20;62.40
63017;DHT22;50274;45.640;11.756;2023-06-01T03:45:11;19.20;62.40
63017;DHT22;50274;45.640;11.756;2023-06-01T03:47:38;19.20;62.40
63017;DHT22;50274;45.640;11.756;2023-06-01T03:50:06;19.20;62.50
63017;DHT22;50274;45.640;11.756;2023-06-01T03:52:33;19.20;62.40
63017;DHT22;50274;45.640;11.756;2023-06-01T03:55:00;19.20;62.40
63017;DHT22;50274;45.640;11.756;2023-06-01T03:57:27;19.20;62.30
63017;DHT22;50274;45.640;11.756;2023-06-01T03:59:53;19.10;62.30
63017;DHT22;50274;45.640;11.756;2023-06-01T04:02:19;19.10;62.60
63017;DHT22;50274;45.640;11.756;2023-06-01T04:04:47;19.00;62.80
63017;DHT22;50274;45.640;11.756;2023-06-01T04:07:14;19.00;62.90
63017;DHT22;50274;45.640;11.756;2023-06-01T04:09:44;19.00;63.00
63017;DHT22;50274;45.640;11.756;2023-06-01T04:12:13;19.10;63.00
63017;DHT22;50274;45.640;11.756;2023-06-01T04:14:39;19.00;63.00
63017;DHT22;50274;45.640;11.756;2023-06-01T04:17:05;19.10;62.90
63017;DHT22;50274;45.640;11.756;2023-06-01T04:19:32;19.10;62.90
63017;DHT22;50274;45.640;11.756;2023-06-01T04:21:59;19.10;62.80
63017;DHT22;50274;45.640;11.756;2023-06-01T04:24:25;19.20;62.70
63017;DHT22;50274;45.640;11.756;2023-06-01T04:26:51;19.30;62.70
63017;DHT22;50274;45.640;11.756;2023-06-01T04:29:17;19.30;62.60
63017;DHT22;50274;45.640;11.756;2023-06-01T04:31:47;19.30;62.60
63017;DHT22;50274;45.640;11.756;2023-06-01T04:34:13;19.40;62.50
63017;DHT22;50274;45.640;11.756;2023-06-01T04:36:39;19.50;62.40
63017;DHT22;50274;45.640;11.756;2023-06-01T04:39:08;19.50;62.40
63017;DHT22;50274;45.640;11.756;2023-06-01T04:41:35;19.60;62.40
63017;DHT22;50274;45.640;11.756;2023-06-01T04:44:02;19.60;62.20
63017;DHT22;50274;45.640;11.756;2023-06-01T04:46:32;19.60;62.10
63017;DHT22;50274;45.640;11.756;2023-06-01T04:48:58;19.70;61.90
63017;DHT22;50274;45.640;11.756;2023-06-01T04:51:26;19.80;61.90
63017;DHT22;50274;45.640;11.756;2023-06-01T04:53:53;19.80;61.80
63017;DHT22;50274;45.640;11.756;2023-06-01T04:56:20;19.90;61.80
63017;DHT22;50274;45.640;11.756;2023-06-01T04:58:50;20.00;61.80
63017;DHT22;50274;45.640;11.756;2023-06-01T05:01:17;20.00;61.50
63017;DHT22;50274;45.640;11.756;2023-06-01T05:03:44;20.10;61.30
63017;DHT22;50274;45.640;11.756;2023-06-01T05:06:12;20.10;61.10
63017;DHT22;50274;45.640;11.756;2023-06-01T05:08:41;20.20;60.80
63017;DHT22;50274;45.640;11.756;2023-06-01T05:11:08;20.30;60.50
63017;DHT22;50274;45.640;11.756;2023-06-01T05:13:35;20.30;60.40
63017;DHT22;50274;45.640;11.756;2023-06-01T05:16:03;20.40;60.20
63017;DHT22;50274;45.640;11.756;2023-06-01T05:18:29;20.40;60.20
63017;DHT22;50274;45.640;11.756;2023-06-01T05:20:55;20.50;60.10
63017;DHT22;50274;45.640;11.756;2023-06-01T05:23:20;20.60;60.00
63017;DHT22;50274;45.640;11.756;2023-06-01T05:25:46;20.70;59.90
63017;DHT22;50274;45.640;11.756;2023-06-01T05:28:12;20.80;59.70
63017;DHT22;50274;45.640;11.756;2023-06-01T05:30:38;20.80;59.60
63017;DHT22;50274;45.640;11.756;2023-06-01T05:33:04;21.00;59.70
63017;DHT22;50274;45.640;11.756;2023-06-01T05:35:30;21.00;59.50
63017;DHT22;50274;45.640;11.756;2023-06-01T05:37:55;21.10;59.50
63017;DHT22;50274;45.640;11.756;2023-06-01T05:40:21;21.10;59.40
63017;DHT22;50274;45.640;11.756;2023-06-01T05:42:47;21.20;59.40
63017;DHT22;50274;45.640;11.756;2023-06-01T05:45:13;21.30;59.60
63017;DHT22;50274;45.640;11.756;2023-06-01T05:47:39;21.40;59.60
63017;DHT22;50274;45.640;11.756;2023-06-01T05:50:05;21.50;59.60
63017;DHT22;50274;45.640;11.756;2023-06-01T05:52:31;21.60;59.60
63017;DHT22;50274;45.640;11.756;2023-06-01T05:55:02;21.60;59.40
63017;DHT22;50274;45.640;11.756;2023-06-01T05:57:28;21.70;59.40
63017;DHT22;50274;45.640;11.756;2023-06-01T05:59:53;21.80;59.30
63017;DHT22;50274;45.640;11.756;2023-06-01T06:02:19;21.90;59.10
63017;DHT22;50274;45.640;11.756;2023-06-01T06:04:45;22.00;58.80
63017;DHT22;50274;45.640;11.756;2023-06-01T06:07:11;22.10;58.50
63017;DHT22;50274;45.640;11.756;2023-06-01T06:09:37;22.20;58.30
63017;DHT22;50274;45.640;11.756;2023-06-01T06:12:03;22.30;57.90
63017;DHT22;50274;45.640;11.756;2023-06-01T06:14:29;22.40;57.40
63017;DHT22;50274;45.640;11.756;2023-06-01T06:16:55;22.50;57.20
63017;DHT22;50274;45.640;11.756;2023-06-01T06:19:22;22.60;57.00
63017;DHT22;50274;45.640;11.756;2023-06-01T06:21:48;22.70;56.80
63017;DHT22;50274;45.640;11.756;2023-06-01T06:24:14;22.80;56.60
63017;DHT22;50274;45.640;11.756;2023-06-01T06:26:40;22.90;56.40
63017;DHT22;50274;45.640;11.756;2023-06-01T06:29:06;23.00;56.20
63017;DHT22;50274;45.640;11.756;2023-06-01T06:31:31;23.10;56.00
63017;DHT22;50274;45.640;11.756;2023-06-01T06:33:57;23.20;55.70
63017;DHT22;50274;45.640;11.756;2023-06-01T06:36:23;23.20;55.40
63017;DHT22;50274;45.640;11.756;2023-06-01T06:38:49;23.30;55.20
63017;DHT22;50274;45.640;11.756;2023-06-01T06:41:15;23.40;54.90
63017;DHT22;50274;45.640;11.756;2023-06-01T06:43:41;23.50;54.50
63017;DHT22;50274;45.640;11.756;2023-06-01T06:46:07;23.50;54.00
63017;DHT22;50274;45.640;11.756;2023-06-01T06:48:33;23.60;53.60
63017;DHT22;50274;45.640;11.756;2023-06-01T06:50:58;23.60;53.10
63017;DHT22;50274;45.640;11.756;2023-06-01T06:53:24;23.70;52.80
63017;DHT22;50274;45.640;11.756;2023-06-01T06:55:50;23.70;52.70
63017;DHT22;50274;45.640;11.756;2023-06-01T06:58:16;23.80;52.70
63017;DHT22;50274;45.640;11.756;2023-06-01T07:00:41;23.90;52.40
63017;DHT22;50274;45.640;11.756;2023-06-01T07:03:07;23.90;52.20
63017;DHT22;50274;45.640;11.756;2023-06-01T07:05:34;23.90;52.10
63017;DHT22;50274;45.640;11.756;2023-06-01T07:08:00;24.00;52.10
63017;DHT22;50274;45.640;11.756;2023-06-01T07:10:26;24.10;51.90
63017;DHT22;50274;45.640;11.756;2023-06-01T07:12:52;24.20;51.50
63017;DHT22;50274;45.640;11.756;2023-06-01T07:15:18;24.20;51.30
63017;DHT22;50274;45.640;11.756;2023-06-01T07:17:44;24.30;51.30
63017;DHT22;50274;45.640;11.756;2023-06-01T07:20:10;24.40;51.50
63017;DHT22;50274;45.640;11.756;2023-06-01T07:22:39;24.50;51.00
63017;DHT22;50274;45.640;11.756;2023-06-01T07:25:06;24.60;50.60
63017;DHT22;50274;45.640;11.756;2023-06-01T07:27:32;24.60;50.40
63017;DHT22;50274;45.640;11.756;2023-06-01T07:30:04;24.70;50.50
63017;DHT22;50274;45.640;11.756;2023-06-01T07:32:30;24.70;50.40
63017;DHT22;50274;45.640;11.756;2023-06-01T07:34:56;24.80;49.90
63017;DHT22;50274;45.640;11.756;2023-06-01T07:37:24;24.80;49.80
63017;DHT22;50274;45.640;11.756;2023-06-01T07:39:53;24.80;49.40
63017;DHT22;50274;45.640;11.756;2023-06-01T07:42:19;24.90;49.40
63017;DHT22;50274;45.640;11.756;2023-06-01T07:44:46;25.00;49.40
63017;DHT22;50274;45.640;11.756;2023-06-01T07:47:12;25.10;49.50
63017;DHT22;50274;45.640;11.756;2023-06-01T07:49:37;25.10;48.90
63017;DHT22;50274;45.640;11.756;2023-06-01T07:52:05;25.20;48.90
63017;DHT22;50274;45.640;11.756;2023-06-01T07:54:31;25.30;48.30
63017;DHT22;50274;45.640;11.756;2023-06-01T07:56:57;25.40;47.90
63017;DHT22;50274;45.640;11.756;2023-06-01T07:59:23;25.50;47.30
63017;DHT22;50274;45.640;11.756;2023-06-01T08:01:53;25.50;46.50
63017;DHT22;50274;45.640;11.756;2023-06-01T08:04:20;25.60;46.60
63017;DHT22;50274;45.640;11.756;2023-06-01T08:06:47;25.80;46.40
63017;DHT22;50274;45.640;11.756;2023-06-01T08:09:16;25.80;46.00
63017;DHT22;50274;45.640;11.756;2023-06-01T08:11:41;25.90;45.50
63017;DHT22;50274;45.640;11.756;2023-06-01T08:14:07;26.00;45.60
63017;DHT22;50274;45.640;11.756;2023-06-01T08:16:34;26.10;45.10
63017;DHT22;50274;45.640;11.756;2023-06-01T08:19:00;26.10;44.20
63017;DHT22;50274;45.640;11.756;2023-06-01T08:21:26;26.10;44.10
63017;DHT22;50274;45.640;11.756;2023-06-01T08:23:55;26.20;44.60
63017;DHT22;50274;45.640;11.756;2023-06-01T08:26:22;26.20;44.00
63017;DHT22;50274;45.640;11.756;2023-06-01T08:28:48;26.30;44.20
63017;DHT22;50274;45.640;11.756;2023-06-01T08:31:21;26.40;43.60
63017;DHT22;50274;45.640;11.756;2023-06-01T08:33:48;26.30;43.40
63017;DHT22;50274;45.640;11.756;2023-06-01T08:36:15;26.40;43.60
63017;DHT22;50274;45.640;11.756;2023-06-01T08:38:41;26.40;43.80
63017;DHT22;50274;45.640;11.756;2023-06-01T08:41:31;26.40;43.80
63017;DHT22;50274;45.640;11.756;2023-06-01T08:44:04;26.50;44.00
63017;DHT22;50274;45.640;11.756;2023-06-01T08:46:32;26.60;43.70
63017;DHT22;50274;45.640;11.756;2023-06-01T08:48:59;26.60;43.80
63017;DHT22;50274;45.640;11.756;2023-06-01T08:51:25;26.70;43.60
63017;DHT22;50274;45.640;11.756;2023-06-01T08:53:53;26.90;43.50
63017;DHT22;50274;45.640;11.756;2023-06-01T08:56:19;26.90;43.20
63017;DHT22;50274;45.640;11.756;2023-06-01T08:58:47;27.00;43.40
63017;DHT22;50274;45.640;11.756;2023-06-01T09:01:17;27.10;43.40
63017;DHT22;50274;45.640;11.756;2023-06-01T09:03:44;27.10;43.10
63017;DHT22;50274;45.640;11.756;2023-06-01T09:06:10;27.20;42.80
63017;DHT22;50274;45.640;11.756;2023-06-01T09:08:36;27.30;42.70
63017;DHT22;50274;45.640;11.756;2023-06-01T09:11:02;27.40;42.50
63017;DHT22;50274;45.640;11.756;2023-06-01T09:13:35;27.40;42.20
63017;DHT22;50274;45.640;11.756;2023-06-01T09:16:02;27.40;42.30
63017;DHT22;50274;45.640;11.756;2023-06-01T09:18:28;27.50;42.40
63017;DHT22;50274;45.640;11.756;2023-06-01T09:20:54;27.50;42.10
63017;DHT22;50274;45.640;11.756;2023-06-01T09:23:26;27.60;42.00
63017;DHT22;50274;45.640;11.756;2023-06-01T09:26:14;27.70;40.90
63017;DHT22;50274;45.640;11.756;2023-06-01T09:28:53;27.80;41.40
63017;DHT22;50274;45.640;11.756;2023-06-01T09:34:09;27.90;41.50
63017;DHT22;50274;45.640;11.756;2023-06-01T09:36:37;28.00;41.50
63017;DHT22;50274;45.640;11.756;2023-06-01T09:39:22;28.10;41.20
63017;DHT22;50274;45.640;11.756;2023-06-01T09:41:59;28.10;41.10
63017;DHT22;50274;45.640;11.756;2023-06-01T09:44:37;28.30;40.70
63017;DHT22;50274;45.640;11.756;2023-06-01T09:47:05;28.50;40.50
63017;DHT22;50274;45.640;11.756;2023-06-01T09:49:42;28.30;40.20
63017;DHT22;50274;45.640;11.756;2023-06-01T09:52:10;28.20;39.50
63017;DHT22;50274;45.640;11.756;2023-06-01T09:54:50;28.30;40.40
63017;DHT22;50274;45.640;11.756;2023-06-01T09:57:26;28.40;40.20
63017;DHT22;50274;45.640;11.756;2023-06-01T09:59:54;28.40;39.30
63017;DHT22;50274;45.640;11.756;2023-06-01T10:02:21;28.40;39.90
63017;DHT22;50274;45.640;11.756;2023-06-01T10:04:49;28.40;39.60
63017;DHT22;50274;45.640;11.756;2023-06-01T10:07:17;28.40;39.70
63017;DHT22;50274;45.640;11.756;2023-06-01T10:09:55;28.40;39.50
63017;DHT22;50274;45.640;11.756;2023-06-01T10:12:21;28.40;40.00
63017;DHT22;50274;45.640;11.756;2023-06-01T10:14:48;28.50;40.20
63017;DHT22;50274;45.640;11.756;2023-06-01T10:17:15;28.60;40.20
63017;DHT22;50274;45.640;11.756;2023-06-01T10:19:42;28.80;40.30
63017;DHT22;50274;45.640;11.756;2023-06-01T10:22:09;29.00;40.50
63017;DHT22;50274;45.640;11.756;2023-06-01T10:24:36;29.00;39.40
63017;DHT22;50274;45.640;11.756;2023-06-01T10:27:19;29.00;39.50
63017;DHT22;50274;45.640;11.756;2023-06-01T10:29:46;28.90;39.50
63017;DHT22;50274;45.640;11.756;2023-06-01T10:35:07;29.10;39.40
63017;DHT22;50274;45.640;11.756;2023-06-01T10:37:36;29.20;39.20
63017;DHT22;50274;45.640;11.756;2023-06-01T10:40:20;29.30;39.60
63017;DHT22;50274;45.640;11.756;2023-06-01T10:42:48;29.40;39.10
63017;DHT22;50274;45.640;11.756;2023-06-01T10:47:59;29.80;38.40
63017;DHT22;50274;45.640;11.756;2023-06-01T10:50:26;29.80;38.10
63017;DHT22;50274;45.640;11.756;2023-06-01T10:52:53;29.60;37.70
63017;DHT22;50274;45.640;11.756;2023-06-01T10:55:24;29.60;38.30
63017;DHT22;50274;45.640;11.756;2023-06-01T10:57:50;29.70;38.10
63017;DHT22;50274;45.640;11.756;2023-06-01T11:00:22;29.80;38.50
63017;DHT22;50274;45.640;11.756;2023-06-01T11:02:58;30.10;38.40
63017;DHT22;50274;45.640;11.756;2023-06-01T11:05:50;30.10;36.80
63017;DHT22;50274;45.640;11.756;2023-06-01T11:13:26;30.10;37.60
63017;DHT22;50274;45.640;11.756;2023-06-01T11:18:51;30.10;37.80
63017;DHT22;50274;45.640;11.756;2023-06-01T11:21:41;30.30;37.40
63017;DHT22;50274;45.640;11.756;2023-06-01T11:24:13;30.50;37.20
63017;DHT22;50274;45.640;11.756;2023-06-01T11:26:44;30.60;37.40
63017;DHT22;50274;45.640;11.756;2023-06-01T11:29:19;30.70;36.60
63017;DHT22;50274;45.640;11.756;2023-06-01T11:31:53;30.50;37.40
63017;DHT22;50274;45.640;11.756;2023-06-01T11:37:00;30.50;36.30
63017;DHT22;50274;45.640;11.756;2023-06-01T11:39:28;30.60;37.30
63017;DHT22;50274;45.640;11.756;2023-06-01T11:42:06;30.60;37.20
63017;DHT22;50274;45.640;11.756;2023-06-01T11:44:37;30.60;35.90
63017;DHT22;50274;45.640;11.756;2023-06-01T11:47:05;30.70;36.50
63017;DHT22;50274;45.640;11.756;2023-06-01T11:49:49;30.60;35.60
63017;DHT22;50274;45.640;11.756;2023-06-01T11:52:20;30.40;35.90
63017;DHT22;50274;45.640;11.756;2023-06-01T11:54:47;30.30;36.00
63017;DHT22;50274;45.640;11.756;2023-06-01T11:57:13;30.40;36.20
63017;DHT22;50274;45.640;11.756;2023-06-01T11:59:49;30.50;36.30
63017;DHT22;50274;45.640;11.756;2023-06-01T12:02:17;30.60;35.70
63017;DHT22;50274;45.640;11.756;2023-06-01T12:05:00;30.70;36.00
63017;DHT22;50274;45.640;11.756;2023-06-01T12:07:51;30.90;35.90
63017;DHT22;50274;45.640;11.756;2023-06-01T12:10:20;31.00;36.10
63017;DHT22;50274;45.640;11.756;2023-06-01T12:12:46;31.00;36.30
63017;DHT22;50274;45.640;11.756;2023-06-01T12:15:15;31.20;35.50
63017;DHT22;50274;45.640;11.756;2023-06-01T12:17:54;31.20;35.00
63017;DHT22;50274;45.640;11.756;2023-06-01T12:20:31;31.20;34.50
63017;DHT22;50274;45.640;11.756;2023-06-01T12:22:58;31.30;35.30
63017;DHT22;50274;45.640;11.756;2023-06-01T12:25:25;31.40;35.40
63017;DHT22;50274;45.640;11.756;2023-06-01T12:28:04;31.60;35.60
63017;DHT22;50274;45.640;11.756;2023-06-01T12:30:30;31.70;36.20
63017;DHT22;50274;45.640;11.756;2023-06-01T12:32:56;31.70;35.20
63017;DHT22;50274;45.640;11.756;2023-06-01T12:35:22;31.90;35.10
63017;DHT22;50274;45.640;11.756;2023-06-01T12:38:08;31.80;34.50
63017;DHT22;50274;45.640;11.756;2023-06-01T12:40:37;31.70;33.80
63017;DHT22;50274;45.640;11.756;2023-06-01T12:43:04;31.60;34.10
63017;DHT22;50274;45.640;11.756;2023-06-01T12:45:39;31.80;34.60
63017;DHT22;50274;45.640;11.756;2023-06-01T12:48:06;31.60;34.30
63017;DHT22;50274;45.640;11.756;2023-06-01T12:50:32;31.50;34.50
63017;DHT22;50274;45.640;11.756;2023-06-01T12:52:58;31.50;34.60
63017;DHT22;50274;45.640;11.756;2023-06-01T12:55:23;31.70;35.00
63017;DHT22;50274;45.640;11.756;2023-06-01T12:57:54;32.00;35.30
63017;DHT22;50274;45.640;11.756;2023-06-01T13:00:20;31.90;34.50
63017;DHT22;50274;45.640;11.756;2023-06-01T13:02:47;31.80;33.90
63017;DHT22;50274;45.640;11.756;2023-06-01T13:05:16;31.90;34.20
63017;DHT22;50274;45.640;11.756;2023-06-01T13:07:45;31.70;35.00
63017;DHT22;50274;45.640;11.756;2023-06-01T13:10:14;31.70;35.50
63017;DHT22;50274;45.640;11.756;2023-06-01T13:12:40;31.60;35.80
63017;DHT22;50274;45.640;11.756;2023-06-01T13:15:07;31.60;36.40
63017;DHT22;50274;45.640;11.756;2023-06-01T13:17:33;31.60;36.70
63017;DHT22;50274;45.640;11.756;2023-06-01T13:19:59;31.60;35.60
63017;DHT22;50274;45.640;11.756;2023-06-01T13:22:25;31.60;35.50
63017;DHT22;50274;45.640;11.756;2023-06-01T13:24:50;31.60;35.80
63017;DHT22;50274;45.640;11.756;2023-06-01T13:27:16;31.60;35.70
63017;DHT22;50274;45.640;11.756;2023-06-01T13:29:42;31.60;35.60
63017;DHT22;50274;45.640;11.756;2023-06-01T13:32:08;31.60;36.10
63017;DHT22;50274;45.640;11.756;2023-06-01T13:34:34;31.80;36.20
63017;DHT22;50274;45.640;11.756;2023-06-01T13:37:01;31.90;35.80
63017;DHT22;50274;45.640;11.756;2023-06-01T13:39:27;32.10;36.40
63017;DHT22;50274;45.640;11.756;2023-06-01T13:41:52;32.00;35.20
63017;DHT22;50274;45.640;11.756;2023-06-01T13:44:18;31.90;34.50
63017;DHT22;50274;45.640;11.756;2023-06-01T13:46:44;31.90;34.20
63017;DHT22;50274;45.640;11.756;2023-06-01T13:49:10;31.80;34.50
63017;DHT22;50274;45.640;11.756;2023-06-01T13:51:36;31.80;34.10
63017;DHT22;50274;45.640;11.756;2023-06-01T13:54:05;31.60;33.40
63017;DHT22;50274;45.640;11.756;2023-06-01T13:56:31;31.60;33.70
63017;DHT22;50274;45.640;11.756;2023-06-01T13:58:57;31.80;34.00
63017;DHT22;50274;45.640;11.756;2023-06-01T14:01:23;31.70;33.90
63017;DHT22;50274;45.640;11.756;2023-06-01T14:03:49;31.70;34.00
63017;DHT22;50274;45.640;11.756;2023-06-01T14:06:15;31.70;33.10
63017;DHT22;50274;45.640;11.756;2023-06-01T14:08:41;31.60;33.40
63017;DHT22;50274;45.640;11.756;2023-06-01T14:11:07;31.50;33.50
63017;DHT22;50274;45.640;11.756;2023-06-01T14:13:33;31.50;33.40
63017;DHT22;50274;45.640;11.756;2023-06-01T14:15:59;31.50;33.60
63017;DHT22;50274;45.640;11.756;2023-06-01T14:18:24;31.50;33.80
63017;DHT22;50274;45.640;11.756;2023-06-01T14:20:50;31.50;34.00
63017;DHT22;50274;45.640;11.756;2023-06-01T14:23:16;31.40;33.60
63017;DHT22;50274;45.640;11.756;2023-06-01T14:25:42;31.40;33.90
63017;DHT22;50274;45.640;11.756;2023-06-01T14:28:09;31.40;33.90
63017;DHT22;50274;45.640;11.756;2023-06-01T14:30:35;31.30;33.70
63017;DHT22;50274;45.640;11.756;2023-06-01T14:33:00;31.20;33.90
63017;DHT22;50274;45.640;11.756;2023-06-01T14:35:26;31.10;34.40
63017;DHT22;50274;45.640;11.756;2023-06-01T14:37:52;31.10;34.40
63017;DHT22;50274;45.640;11.756;2023-06-01T14:40:18;31.10;34.20
63017;DHT22;50274;45.640;11.756;2023-06-01T14:42:45;31.10;34.60
63017;DHT22;50274;45.640;11.756;2023-06-01T14:45:11;30.90;35.10
63017;DHT22;50274;45.640;11.756;2023-06-01T14:47:37;30.90;35.70
63017;DHT22;50274;45.640;11.756;2023-06-01T14:50:03;30.80;35.20
63017;DHT22;50274;45.640;11.756;2023-06-01T14:52:29;30.70;35.50
63017;DHT22;50274;45.640;11.756;2023-06-01T14:54:55;30.60;36.10
63017;DHT22;50274;45.640;11.756;2023-06-01T14:57:21;30.50;36.40
63017;DHT22;50274;45.640;11.756;2023-06-01T14:59:47;30.40;36.00
63017;DHT22;50274;45.640;11.756;2023-06-01T15:02:13;30.30;36.50
63017;DHT22;50274;45.640;11.756;2023-06-01T15:04:39;30.30;36.60
63017;DHT22;50274;45.640;11.756;2023-06-01T15:07:05;30.30;36.60
63017;DHT22;50274;45.640;11.756;2023-06-01T15:09:31;30.30;36.30
63017;DHT22;50274;45.640;11.756;2023-06-01T15:11:56;30.20;36.50
63017;DHT22;50274;45.640;11.756;2023-06-01T15:14:22;30.10;36.60
63017;DHT22;50274;45.640;11.756;2023-06-01T15:16:48;30.00;37.10
63017;DHT22;50274;45.640;11.756;2023-06-01T15:19:14;30.00;37.50
63017;DHT22;50274;45.640;11.756;2023-06-01T15:21:40;29.90;37.60
63017;DHT22;50274;45.640;11.756;2023-06-01T15:24:06;29.80;37.50
63017;DHT22;50274;45.640;11.756;2023-06-01T15:26:31;29.70;37.60
63017;DHT22;50274;45.640;11.756;2023-06-01T15:28:57;29.60;37.50
63017;DHT22;50274;45.640;11.756;2023-06-01T15:31:23;29.50;37.80
63017;DHT22;50274;45.640;11.756;2023-06-01T15:33:49;29.40;38.00
63017;DHT22;50274;45.640;11.756;2023-06-01T15:36:14;29.30;38.50
63017;DHT22;50274;45.640;11.756;2023-06-01T15:38:40;29.30;38.60
63017;DHT22;50274;45.640;11.756;2023-06-01T15:41:06;29.30;39.10
63017;DHT22;50274;45.640;11.756;2023-06-01T15:43:36;29.20;39.50
63017;DHT22;50274;45.640;11.756;2023-06-01T15:46:04;29.20;39.20
63017;DHT22;50274;45.640;11.756;2023-06-01T15:48:30;29.10;38.80
63017;DHT22;50274;45.640;11.756;2023-06-01T15:50:57;29.10;38.90